EGPD/ABZ METAR and TAF weather

Enter ICAO airport designator
Station Type Date Time Source
EGPD METAR 2020/08/14 16:50 UTC NOAA

EGPD 141650Z AUTO 11007KT 9999 OVC021 16/13 Q1018 NOSIG


Station Type Date Time Source
EGPD Decoded METAR 2020/08/14 16:50 UTC NOAA

Aberdeen / Dyce, United Kingdom (EGPD) 57-12N 002-13W 0M
Aug 14, 2020 - 12:50 PM EDT / 2020.08.14 1650 UTC
Wind: from the ESE (110 degrees) at 8 MPH (7 KT):0
Visibility: greater than 7 mile(s):0
Sky conditions: overcast
Temperature: 60 F (16 C)
Dew Point: 55 F (13 C)
Relative Humidity: 82%
Pressure (altimeter): 30.06 in. Hg (1018 hPa)
ob: EGPD 141650Z AUTO 11007KT 9999 OVC021 16/13 Q1018 NOSIG
cycle: 17

Station Type Date Time Source
EGPD TAF 2020/08/14 18:09 UTC NOAA

TAF EGPD 141655Z 1418/1518 12006KT 9999 BKN018
BECMG 1418/1421 BKN006
TEMPO 1418/1509 4000 BR BKN004 PROB40
TEMPO 1500/1508 2000 PROB40
TEMPO 1509/1518 8000 BKN008

Example: see airport list